Time;durP1;ratioP1;P1;durP2;ratioP2;P2;SDS_P1;SDS_P2;PMS_P1;PMS_P2;Temp;Humidity;BMP_temperature;BMP_pressure;BME280_temperature;BME280_humidity;BME280_pressure;Samples;Min_cycle;Max_cycle;Signal;HPM_P1;HPM_P2
2022/08/22 02:58:31;;;;;;;11.78;4.33;;;;;;;16.11;100.00;98514.72;4590357;76;23406;-90
2022/08/22 03:04:46;;;;;;;6.67;3.42;;;;;;;16.09;100.00;98507.45;4474384;79;21030;-90
2022/08/22 03:11:09;;;;;;;6.90;4.33;;;;;;;16.18;100.00;98496.62;4500278;77;21254;-90
2022/08/22 03:17:53;;;;;;;9.05;3.50;;;;;;;16.28;100.00;98496.44;4510787;79;21052;-89
2022/08/22 03:24:16;;;;;;;6.95;4.25;;;;;;;16.36;100.00;98496.48;4485266;77;21020;-87
2022/08/22 03:30:33;;;;;;;7.17;3.87;;;;;;;16.40;100.00;98512.38;4494124;79;20987;-89
2022/08/22 03:37:11;;;;;;;9.97;3.47;;;;;;;16.44;100.00;98511.75;4509828;78;21042;-89
2022/08/22 03:43:47;;;;;;;5.03;2.50;;;;;;;16.51;100.00;98508.83;4494121;79;21084;-89
2022/08/22 03:50:10;;;;;;;4.30;2.43;;;;;;;16.53;100.00;98516.69;4512028;78;20992;-89
2022/08/22 03:56:53;;;;;;;6.37;2.43;;;;;;;16.57;100.00;98521.55;4415344;78;21115;-89
2022/08/22 04:16:46;;;;;;;8.83;2.70;;;;;;;16.67;100.00;98525.47;4385775;79;21170;-89
2022/08/22 05:58:50;;;;;;;19.00;9.68;;;;;;;17.14;100.00;98589.64;4454368;76;21141;-91
2022/08/22 06:05:13;;;;;;;22.52;9.95;;;;;;;17.20;100.00;98592.86;4451713;78;21041;-91
2022/08/22 06:39:35;;;;;;;17.85;10.82;;;;;;;17.36;100.00;98600.42;4398153;81;21874;-93
2022/08/22 06:45:38;;;;;;;21.35;10.78;;;;;;;17.41;100.00;98602.69;4456049;79;21545;-91
2022/08/22 06:52:01;;;;;;;19.45;10.75;;;;;;;17.45;100.00;98610.91;4460286;79;21014;-90
2022/08/22 06:58:28;;;;;;;21.05;12.37;;;;;;;17.49;100.00;98613.80;4463801;79;21549;-89
2022/08/22 07:04:35;;;;;;;28.75;13.95;;;;;;;17.56;100.00;98619.16;4444712;78;21089;-90
2022/08/22 07:24:55;;;;;;;35.03;16.23;;;;;;;17.66;100.00;98634.76;4480301;77;21076;-92
2022/08/22 09:44:45;;;;;;;40.60;20.97;;;;;;;17.90;100.00;98676.92;4457323;79;21140;-93
2022/08/22 09:51:13;;;;;;;30.48;15.98;;;;;;;17.88;100.00;98657.98;4351354;77;74037;-83
2022/08/22 09:57:38;;;;;;;36.80;17.85;;;;;;;17.90;100.00;98653.39;4294416;79;21020;-80
2022/08/22 10:04:14;;;;;;;31.45;15.98;;;;;;;17.91;100.00;98647.42;4361819;81;21046;-81
2022/08/22 10:11:17;;;;;;;30.45;17.23;;;;;;;17.94;100.00;98647.94;4313463;80;20987;-81
2022/08/22 10:17:23;;;;;;;38.67;19.55;;;;;;;17.92;100.00;98637.10;4320824;80;21029;-83
2022/08/22 10:23:30;;;;;;;41.00;21.20;;;;;;;17.94;100.00;98635.48;4318772;80;21062;-82
2022/08/22 10:30:20;;;;;;;31.37;18.73;;;;;;;17.98;100.00;98624.32;4324131;80;21008;-84
2022/08/22 10:36:47;;;;;;;29.12;18.12;;;;;;;18.01;100.00;98625.59;4331867;80;21065;-82
2022/08/22 10:42:57;;;;;;;27.03;15.60;;;;;;;17.99;100.00;98643.27;4329780;80;20928;-85
2022/08/22 10:49:02;;;;;;;23.18;12.98;;;;;;;18.04;100.00;98628.87;4325778;80;21117;-84
2022/08/22 10:55:18;;;;;;;19.45;11.78;;;;;;;18.08;100.00;98648.98;4322205;80;21025;-85
2022/08/22 11:01:25;;;;;;;14.10;8.70;;;;;;;18.22;100.00;98652.00;4311199;80;21042;-84
2022/08/22 11:08:07;;;;;;;12.63;8.73;;;;;;;18.43;100.00;98636.26;4316766;80;21040;-86
2022/08/22 11:15:06;;;;;;;18.85;11.88;;;;;;;18.71;100.00;98634.88;4311646;80;21919;-86
2022/08/22 11:21:29;;;;;;;24.37;14.75;;;;;;;19.36;100.00;98634.05;4312107;80;21027;-86
2022/08/22 11:27:45;;;;;;;17.67;13.65;;;;;;;20.28;100.00;98624.98;4311642;80;21768;-86
2022/08/22 11:33:58;;;;;;;16.13;11.73;;;;;;;20.56;100.00;98626.82;4314381;80;22003;-87
2022/08/22 11:40:32;;;;;;;17.27;12.05;;;;;;;20.56;100.00;98629.60;4359961;80;21541;-86
2022/08/22 11:46:41;;;;;;;16.32;13.05;;;;;;;20.63;100.00;98622.39;4339927;79;21487;-86
2022/08/22 11:53:06;;;;;;;20.85;13.88;;;;;;;20.73;100.00;98625.42;4388345;79;21035;-87
2022/08/22 11:59:20;;;;;;;20.52;14.53;;;;;;;20.61;100.00;98623.44;4317894;80;21008;-87
2022/08/22 12:05:27;;;;;;;20.23;15.60;;;;;;;20.60;100.00;98614.16;4289842;81;21067;-87
2022/08/22 12:12:07;;;;;;;19.45;14.25;;;;;;;20.77;100.00;98595.45;4285557;81;21007;-87
2022/08/22 12:18:23;;;;;;;17.77;14.38;;;;;;;21.02;100.00;98597.36;4260765;81;22022;-87
2022/08/22 12:24:52;;;;;;;17.30;13.60;;;;;;;21.11;100.00;98588.45;4301960;81;21577;-87
2022/08/22 12:31:31;;;;;;;20.02;15.80;;;;;;;21.26;100.00;98591.48;4319243;80;21055;-86
2022/08/22 12:38:15;;;;;;;18.07;15.18;;;;;;;21.12;100.00;98592.80;4325290;80;21023;-86
2022/08/22 12:44:42;;;;;;;17.57;15.65;;;;;;;21.10;100.00;98587.52;4317721;80;21008;-86
2022/08/22 12:50:53;;;;;;;21.17;15.38;;;;;;;21.13;100.00;98584.61;4330029;80;21031;-87
2022/08/22 12:57:24;;;;;;;16.23;14.33;;;;;;;21.22;100.00;98586.05;4342773;80;21047;-86
2022/08/22 13:03:34;;;;;;;16.75;14.70;;;;;;;21.32;100.00;98586.27;4318319;80;21027;-86
2022/08/22 13:09:39;;;;;;;20.45;15.23;;;;;;;21.45;100.00;98586.96;4322956;80;21572;-87
2022/08/22 13:15:58;;;;;;;17.95;14.10;;;;;;;21.59;100.00;98596.76;4390093;79;21013;-86
2022/08/22 13:22:19;;;;;;;16.12;14.07;;;;;;;21.65;100.00;98598.49;4359917;80;20973;-86
2022/08/22 13:28:23;;;;;;;18.82;15.70;;;;;;;21.68;100.00;98594.00;4361989;80;21503;-87
2022/08/22 13:34:56;;;;;;;17.50;15.70;;;;;;;21.63;100.00;98591.20;4364042;80;21390;-86
2022/08/22 13:41:01;;;;;;;17.45;14.83;;;;;;;21.65;100.00;98587.35;4359567;80;20988;-87
2022/08/22 13:47:19;;;;;;;20.82;16.17;;;;;;;21.78;100.00;98583.70;4391119;79;21067;-86
2022/08/22 13:53:37;;;;;;;16.10;14.03;;;;;;;21.79;100.00;98581.84;4308458;80;21028;-87
2022/08/22 13:59:53;;;;;;;17.20;14.80;;;;;;;21.82;100.00;98575.96;4362602;81;21023;-86
2022/08/22 14:05:58;;;;;;;19.83;15.43;;;;;;;21.88;100.00;98568.57;4280042;80;21510;-86
2022/08/22 14:12:37;;;;;;;20.52;14.90;;;;;;;21.94;100.00;98563.30;4309922;80;21624;-86
2022/08/22 14:18:43;;;;;;;18.98;15.38;;;;;;;21.99;100.00;98567.52;4306300;80;20967;-86
2022/08/22 14:24:55;;;;;;;16.33;13.90;;;;;;;22.07;100.00;98563.96;4301790;80;20973;-86
2022/08/22 14:31:13;;;;;;;19.67;13.75;;;;;;;22.10;100.00;98570.64;4307093;80;21000;-86
2022/08/22 14:37:23;;;;;;;19.32;14.43;;;;;;;22.06;100.00;98576.97;4297577;80;20983;-86
2022/08/22 14:43:36;;;;;;;16.45;14.75;;;;;;;22.03;100.00;98573.70;4297927;80;21002;-86
2022/08/22 14:49:52;;;;;;;18.62;13.90;;;;;;;21.97;100.00;98574.95;4310133;80;21086;-86
2022/08/22 15:22:43;;;;;;;19.87;14.63;;;;;;;21.50;100.00;98587.73;4252772;77;10000324;-86
2022/08/22 15:29:10;;;;;;;21.65;14.05;;;;;;;21.38;100.00;98587.22;4427313;77;21838;-85
2022/08/22 15:35:18;;;;;;;19.95;14.60;;;;;;;21.23;100.00;98586.83;4405743;76;75997;-84
2022/08/22 15:41:31;;;;;;;22.13;15.20;;;;;;;21.07;100.00;98596.78;3903271;76;10000446;-86
2022/08/22 15:47:42;;;;;;;21.73;15.10;;;;;;;20.93;100.00;98598.06;4367879;78;79906;-85
2022/08/22 15:54:06;;;;;;;20.60;14.15;;;;;;;20.77;100.00;98604.41;4431426;77;21446;-85
2022/08/22 16:00:35;;;;;;;21.95;16.95;;;;;;;20.60;100.00;98602.44;4485155;77;21030;-86
2022/08/22 16:06:50;;;;;;;23.52;16.65;;;;;;;20.52;100.00;98603.12;4398378;76;82841;-85
2022/08/22 16:13:29;;;;;;;22.17;16.85;;;;;;;20.46;100.00;98605.71;4337279;80;21068;-85
2022/08/22 16:19:37;;;;;;;26.70;17.77;;;;;;;20.44;100.00;98607.40;4328293;82;20980;-87
2022/08/22 16:25:53;;;;;;;28.85;18.90;;;;;;;20.36;100.00;98605.45;4356166;80;20996;-86
2022/08/22 16:32:20;;;;;;;37.47;21.70;;;;;;;20.27;100.00;98601.20;4277386;81;21001;-87
2022/08/22 16:38:27;;;;;;;;;;;;;;;20.15;100.00;98603.41;4355879;80;20992;-86
2022/08/22 16:44:40;;;;;;;33.10;20.57;;;;;;;20.02;100.00;98601.22;4349590;80;20150;-87
2022/08/22 16:50:48;;;;;;;34.23;21.27;;;;;;;19.92;100.00;98607.30;4353317;80;21031;-86
2022/08/22 16:57:23;;;;;;;32.48;22.62;;;;;;;19.79;100.00;98616.27;4055209;83;9999850;-87
2022/08/22 17:04:04;;;;;;;29.82;20.85;;;;;;;19.68;100.00;98621.37;4175048;83;21024;-87
2022/08/22 17:10:20;;;;;;;36.60;22.30;;;;;;;19.58;100.00;98621.08;4227896;82;20966;-87
2022/08/22 17:17:14;;;;;;;39.73;21.37;;;;;;;19.52;100.00;98631.19;4284271;82;20995;-86
2022/08/22 17:24:02;;;;;;;38.42;22.50;;;;;;;19.45;100.00;98633.41;4214213;82;21020;-86
2022/08/22 17:43:51;;;;;;;42.62;24.12;;;;;;;19.19;100.00;98620.66;4324398;81;21417;-86
2022/08/22 17:50:09;;;;;;;44.33;25.00;;;;;;;19.11;100.00;98640.11;4224535;81;21067;-86
2022/08/22 17:56:53;;;;;;;45.08;24.35;;;;;;;19.00;100.00;98628.55;4207932;82;20992;-85
2022/08/22 18:03:27;;;;;;;42.20;23.27;;;;;;;18.94;100.00;98649.12;4265969;83;21029;-86
2022/08/22 18:16:43;;;;;;;38.40;22.27;;;;;;;18.89;100.00;98655.83;4223805;82;21037;-86
2022/08/22 18:23:04;;;;;;;41.60;23.12;;;;;;;18.88;100.00;98677.82;4234093;82;21016;-86
2022/08/22 18:29:19;;;;;;;42.30;23.60;;;;;;;18.83;100.00;98676.96;4290339;81;21011;-85
2022/08/22 18:35:30;;;;;;;50.95;24.27;;;;;;;18.80;100.00;98663.97;4193319;82;20995;-86
2022/08/22 18:41:54;;;;;;;49.50;24.47;;;;;;;18.83;100.00;98663.89;4221809;83;20992;-85
2022/08/22 18:48:03;;;;;;;42.03;23.07;;;;;;;18.80;100.00;98655.06;4200213;82;21087;-84
2022/08/22 18:54:11;;;;;;;49.67;26.85;;;;;;;18.78;100.00;98647.02;4219953;84;21127;-85
2022/08/22 19:00:18;;;;;;;46.70;25.70;;;;;;;18.74;100.00;98663.11;4228581;83;20965;-84
2022/08/22 19:06:48;;;;;;;47.48;24.82;;;;;;;18.65;100.00;98674.69;4240076;81;21166;-86
2022/08/22 19:13:23;;;;;;;44.77;22.07;;;;;;;18.59;100.00;98665.31;4251113;82;21059;-85
2022/08/22 19:26:32;;;;;;;32.17;19.25;;;;;;;18.44;100.00;98679.38;4405632;79;21060;-84
2022/08/22 19:32:45;;;;;;;29.55;18.15;;;;;;;18.37;100.00;98698.31;4390213;79;20950;-85
2022/08/22 19:39:13;;;;;;;27.82;16.77;;;;;;;18.36;100.00;98695.97;4363789;79;21041;-84
2022/08/22 19:45:25;;;;;;;27.75;17.07;;;;;;;18.35;100.00;98710.42;4326954;79;21074;-85
2022/08/22 19:51:29;;;;;;;29.32;14.40;;;;;;;18.21;100.00;98728.78;4394063;79;21038;-85
2022/08/22 19:57:38;;;;;;;21.50;12.35;;;;;;;18.16;100.00;98721.01;4371001;79;21018;-84
2022/08/22 20:03:52;;;;;;;17.82;11.53;;;;;;;18.11;100.00;98718.75;4380971;79;21034;-84
2022/08/22 20:10:32;;;;;;;16.67;10.78;;;;;;;18.07;100.00;98716.65;4387908;79;21012;-85
2022/08/22 20:17:13;;;;;;;19.27;11.73;;;;;;;18.00;100.00;98689.73;4244461;83;21044;-82
2022/08/22 20:23:29;;;;;;;19.70;11.12;;;;;;;17.97;100.00;98691.98;4313071;79;21579;-82
2022/08/22 20:29:35;;;;;;;15.48;10.15;;;;;;;17.96;100.00;98704.28;4397231;79;21862;-82
2022/08/22 20:35:45;;;;;;;14.60;9.00;;;;;;;17.89;100.00;98719.66;4400606;79;21955;-83
2022/08/22 20:41:55;;;;;;;14.15;8.23;;;;;;;17.83;100.00;98726.31;4382171;79;21079;-84
